Time;durP1;ratioP1;P1;durP2;ratioP2;P2;SDS_P1;SDS_P2;PMS_P1;PMS_P2;Temp;Humidity;BMP_temperature;BMP_pressure;BME280_temperature;BME280_humidity;BME280_pressure;Samples;Min_cycle;Max_cycle;Signal;HPM_P1;HPM_P2
2022/03/30 00:02:01;;;;;;;40.92;25.45;;;11.20;90.50;;;;;;4951308;28;20063;-73
2022/03/30 00:04:27;;;;;;;42.45;27.52;;;11.20;90.40;;;;;;4950966;28;20117;-73
2022/03/30 00:06:52;;;;;;;37.65;24.88;;;11.10;90.30;;;;;;4952679;28;20031;-73
2022/03/30 00:09:18;;;;;;;40.20;25.08;;;10.90;90.50;;;;;;4948447;28;20028;-73
2022/03/30 00:11:44;;;;;;;39.60;25.52;;;10.90;90.70;;;;;;4950419;28;20115;-73
2022/03/30 00:14:10;;;;;;;40.92;26.55;;;10.80;90.70;;;;;;4945991;28;20149;-72
2022/03/30 00:16:36;;;;;;;45.67;26.70;;;10.80;90.80;;;;;;4951968;28;20489;-73
2022/03/30 00:19:03;;;;;;;44.78;26.63;;;10.80;90.90;;;;;;4951705;28;20070;-73
2022/03/30 00:21:29;;;;;;;39.80;25.17;;;10.80;90.90;;;;;;4950008;28;20023;-72
2022/03/30 00:23:55;;;;;;;41.58;25.63;;;10.90;90.80;;;;;;4946442;28;20031;-73
2022/03/30 00:26:20;;;;;;;40.78;27.00;;;10.90;90.80;;;;;;4949674;28;20063;-73
2022/03/30 00:28:46;;;;;;;41.10;26.25;;;10.90;91.00;;;;;;4949411;28;20530;-73
2022/03/30 00:31:12;;;;;;;40.25;26.10;;;10.90;91.10;;;;;;4952102;28;21714;-72
2022/03/30 00:33:38;;;;;;;43.67;26.70;;;10.80;91.10;;;;;;4948533;28;20126;-73
2022/03/30 00:36:04;;;;;;;37.30;24.92;;;10.80;91.20;;;;;;4951453;28;20027;-72
2022/03/30 00:38:30;;;;;;;38.58;24.67;;;10.80;91.30;;;;;;4958637;28;20038;-72
2022/03/30 00:40:55;;;;;;;42.22;25.85;;;10.80;91.40;;;;;;4956355;28;20047;-73
2022/03/30 00:43:21;;;;;;;41.33;25.05;;;10.80;91.50;;;;;;4947432;28;20485;-73
2022/03/30 00:45:47;;;;;;;44.67;25.58;;;10.80;91.50;;;;;;4950585;28;20070;-73
2022/03/30 00:48:12;;;;;;;40.10;25.65;;;10.80;91.50;;;;;;4949502;28;20083;-73
2022/03/30 00:50:38;;;;;;;36.92;24.48;;;10.80;91.50;;;;;;4953338;28;20437;-72
2022/03/30 00:53:04;;;;;;;44.15;26.42;;;10.80;91.50;;;;;;4949805;28;20039;-73
2022/03/30 00:55:30;;;;;;;41.42;25.90;;;10.80;91.60;;;;;;4952217;28;20038;-73
2022/03/30 00:57:57;;;;;;;40.40;26.23;;;10.90;91.50;;;;;;4947500;28;20034;-73
2022/03/30 01:00:24;;;;;;;43.50;26.23;;;10.80;91.50;;;;;;4951709;28;20031;-73
2022/03/30 01:02:51;;;;;;;39.88;25.33;;;10.80;91.90;;;;;;4948850;28;20045;-72
2022/03/30 01:05:17;;;;;;;41.38;26.33;;;11.00;91.60;;;;;;4951945;28;20128;-73
2022/03/30 01:07:44;;;;;;;41.30;26.48;;;11.00;91.30;;;;;;4951999;28;20433;-73
2022/03/30 01:10:13;;;;;;;42.38;26.85;;;10.90;91.50;;;;;;4952488;28;20066;-73
2022/03/30 01:12:39;;;;;;;43.30;25.60;;;10.70;91.60;;;;;;4944196;28;20031;-72
2022/03/30 01:15:07;;;;;;;41.33;25.88;;;10.70;91.80;;;;;;4948980;28;20031;-74
2022/03/30 01:17:33;;;;;;;42.13;27.02;;;10.70;91.70;;;;;;4951808;28;20035;-73
2022/03/30 01:19:58;;;;;;;42.65;24.98;;;10.60;91.80;;;;;;4949325;28;20031;-73
2022/03/30 01:22:24;;;;;;;42.15;26.40;;;10.60;91.90;;;;;;4948482;28;20086;-72
2022/03/30 01:24:50;;;;;;;42.55;27.45;;;10.60;92.00;;;;;;4949065;28;20051;-73
2022/03/30 01:27:16;;;;;;;41.53;27.02;;;10.60;91.80;;;;;;4948324;28;20027;-73
2022/03/30 01:32:26;;;;;;;39.45;25.75;;;10.60;92.00;;;;;;4945367;28;20035;-73
2022/03/30 01:34:57;;;;;;;39.85;25.98;;;10.60;92.10;;;;;;4954188;28;20038;-72
2022/03/30 01:37:24;;;;;;;40.90;25.75;;;10.60;92.10;;;;;;4947579;28;20027;-73
2022/03/30 01:39:50;;;;;;;39.95;25.35;;;10.70;92.10;;;;;;4950981;28;20481;-73
2022/03/30 01:42:17;;;;;;;42.22;25.80;;;10.70;92.00;;;;;;4946672;28;20047;-73
2022/03/30 01:44:43;;;;;;;39.88;27.17;;;10.60;92.20;;;;;;4950039;28;20035;-72
2022/03/30 01:47:10;;;;;;;42.80;26.38;;;10.50;92.20;;;;;;4949637;28;20087;-72
2022/03/30 01:49:38;;;;;;;38.47;26.10;;;10.50;92.40;;;;;;4949783;28;20039;-72
2022/03/30 01:52:04;;;;;;;42.17;26.27;;;10.70;92.30;;;;;;4951756;28;20039;-73
2022/03/30 01:54:35;;;;;;;39.30;25.55;;;10.70;92.10;;;;;;4948608;28;20028;-73
2022/03/30 01:57:00;;;;;;;42.72;26.88;;;10.80;92.20;;;;;;4948406;28;20054;-73
2022/03/30 01:59:26;;;;;;;42.55;26.45;;;10.80;92.20;;;;;;4950181;28;20066;-73
2022/03/30 02:01:52;;;;;;;39.63;26.85;;;10.70;92.20;;;;;;4952776;28;20032;-72
2022/03/30 02:04:18;;;;;;;41.28;25.92;;;10.60;92.40;;;;;;4948149;28;20118;-73
2022/03/30 02:06:43;;;;;;;44.20;26.92;;;10.50;92.60;;;;;;4950245;28;20027;-72
2022/03/30 02:09:12;;;;;;;40.75;28.17;;;10.40;92.70;;;;;;4949673;28;20041;-73
2022/03/30 02:11:38;;;;;;;43.03;27.38;;;10.30;92.80;;;;;;4947328;28;20031;-73
2022/03/30 02:14:04;;;;;;;46.55;28.27;;;10.30;93.00;;;;;;4948596;28;20031;-72
2022/03/30 02:16:30;;;;;;;41.33;26.27;;;10.30;93.10;;;;;;4950910;28;20573;-73
2022/03/30 02:18:56;;;;;;;41.80;28.52;;;10.30;93.10;;;;;;4949751;28;20035;-72
2022/03/30 02:21:22;;;;;;;36.40;26.25;;;10.30;93.20;;;;;;4947631;28;20394;-73
2022/03/30 02:23:47;;;;;;;44.03;27.98;;;10.20;93.30;;;;;;4951104;28;20047;-73
2022/03/30 02:26:14;;;;;;;46.53;27.63;;;10.20;93.40;;;;;;4947667;28;20035;-72
2022/03/30 02:28:41;;;;;;;41.38;25.90;;;10.30;93.50;;;;;;4947897;28;20065;-73
2022/03/30 02:31:07;;;;;;;42.97;29.98;;;10.30;93.30;;;;;;4949629;28;20031;-73
2022/03/30 02:33:33;;;;;;;41.92;28.15;;;10.30;93.30;;;;;;4951192;28;20033;-72
2022/03/30 02:35:59;;;;;;;40.65;26.50;;;10.20;93.50;;;;;;4947469;28;20035;-73
2022/03/30 02:38:24;;;;;;;43.08;27.13;;;10.20;93.50;;;;;;4952730;28;20397;-73
2022/03/30 02:40:50;;;;;;;41.42;26.88;;;10.10;93.60;;;;;;4951998;28;20061;-73
2022/03/30 02:43:19;;;;;;;43.25;27.50;;;10.10;93.60;;;;;;4955271;28;20031;-73
2022/03/30 02:45:46;;;;;;;45.60;27.65;;;10.20;93.70;;;;;;4951617;28;20074;-73
2022/03/30 02:48:18;;;;;;;43.47;27.73;;;10.10;93.70;;;;;;4953864;28;20049;-73
2022/03/30 02:50:49;;;;;;;41.13;26.25;;;10.00;93.80;;;;;;4952711;28;20416;-73
2022/03/30 02:53:16;;;;;;;39.60;25.65;;;10.00;93.60;;;;;;4950369;28;20114;-73
2022/03/30 02:55:42;;;;;;;43.42;27.83;;;10.10;93.70;;;;;;4952737;28;20516;-73
2022/03/30 02:58:09;;;;;;;45.20;26.90;;;9.90;93.90;;;;;;4948176;28;20039;-73
2022/03/30 03:00:35;;;;;;;46.33;27.30;;;10.10;93.60;;;;;;4947718;28;20486;-72
2022/03/30 03:03:03;;;;;;;38.28;26.35;;;10.20;93.60;;;;;;4948153;28;20121;-72
2022/03/30 03:05:32;;;;;;;39.72;26.20;;;10.00;93.80;;;;;;4948300;28;20035;-72
2022/03/30 03:08:06;;;;;;;47.15;27.35;;;10.00;94.00;;;;;;4948315;28;20027;-72
2022/03/30 03:10:35;;;;;;;45.47;27.80;;;9.90;94.20;;;;;;4945023;28;20027;-72
2022/03/30 03:13:03;;;;;;;46.42;27.92;;;9.90;94.30;;;;;;4945761;28;20505;-72
2022/03/30 03:15:30;;;;;;;44.22;28.33;;;9.90;94.30;;;;;;4947957;28;20130;-72
2022/03/30 03:17:56;;;;;;;42.80;27.30;;;9.90;94.30;;;;;;4943346;28;20468;-72
2022/03/30 03:20:22;;;;;;;50.83;31.35;;;10.00;94.40;;;;;;4945451;28;20121;-72
2022/03/30 03:22:48;;;;;;;40.17;27.15;;;10.00;94.40;;;;;;4941722;28;20109;-72
2022/03/30 03:25:14;;;;;;;42.17;28.67;;;10.10;94.30;;;;;;4942050;28;20042;-72
2022/03/30 03:27:40;;;;;;;49.35;28.48;;;10.00;94.30;;;;;;4947519;28;20043;-72
2022/03/30 03:30:08;;;;;;;51.95;29.33;;;10.10;94.30;;;;;;4943110;28;20042;-73
2022/03/30 03:32:33;;;;;;;40.17;25.65;;;10.00;94.20;;;;;;4944896;28;20034;-72
2022/03/30 03:34:59;;;;;;;40.83;24.92;;;10.00;94.10;;;;;;4944405;28;20028;-72
2022/03/30 03:37:25;;;;;;;41.92;26.42;;;9.90;94.10;;;;;;4944506;28;20040;-72
2022/03/30 03:39:51;;;;;;;41.35;27.10;;;9.80;94.10;;;;;;4946126;28;20334;-72
2022/03/30 03:42:17;;;;;;;40.47;27.02;;;9.70;94.30;;;;;;4943905;28;20047;-72
2022/03/30 03:44:43;;;;;;;42.88;25.63;;;9.50;94.80;;;;;;4946009;28;20047;-72
2022/03/30 03:47:12;;;;;;;44.50;25.35;;;9.50;94.90;;;;;;4942736;28;20027;-72
2022/03/30 03:49:38;;;;;;;43.70;26.85;;;9.50;95.00;;;;;;4943824;28;20043;-72
2022/03/30 03:52:04;;;;;;;41.45;26.13;;;9.40;95.30;;;;;;4943228;28;20035;-72
2022/03/30 03:54:31;;;;;;;45.88;28.55;;;9.50;95.30;;;;;;4941203;28;20069;-72
2022/03/30 03:56:56;;;;;;;43.08;27.00;;;9.60;95.20;;;;;;4944100;28;20046;-72
2022/03/30 03:59:22;;;;;;;42.95;26.77;;;9.60;95.20;;;;;;4942886;28;20035;-72
2022/03/30 04:01:48;;;;;;;42.00;27.55;;;9.60;95.20;;;;;;4944309;28;20039;-72
2022/03/30 04:04:13;;;;;;;45.40;26.48;;;9.50;95.20;;;;;;4929770;28;20046;-72
2022/03/30 04:06:39;;;;;;;47.85;28.88;;;9.50;95.30;;;;;;4934371;28;20118;-72
2022/03/30 04:09:05;;;;;;;45.30;28.67;;;9.50;95.30;;;;;;4930165;28;20032;-72
2022/03/30 04:11:31;;;;;;;43.35;27.02;;;9.40;95.40;;;;;;4934193;28;20043;-72
2022/03/30 04:13:56;;;;;;;43.42;29.17;;;9.40;95.50;;;;;;4934387;28;20027;-72
2022/03/30 04:16:22;;;;;;;48.10;29.13;;;9.30;95.60;;;;;;4928728;28;20473;-72
2022/03/30 04:18:48;;;;;;;40.95;27.25;;;9.40;95.50;;;;;;4933258;28;20036;-72
2022/03/30 04:21:14;;;;;;;46.17;26.75;;;9.50;95.40;;;;;;4927012;28;20170;-72
2022/03/30 04:23:39;;;;;;;48.90;28.55;;;9.50;95.30;;;;;;4938449;28;20035;-72
2022/03/30 04:26:05;;;;;;;46.03;26.98;;;9.50;95.50;;;;;;4941817;28;20581;-72
2022/03/30 04:28:31;;;;;;;43.72;28.98;;;9.50;95.60;;;;;;4942602;28;20578;-72
2022/03/30 04:30:56;;;;;;;45.13;28.45;;;9.60;95.70;;;;;;4946578;28;20034;-72
2022/03/30 04:33:22;;;;;;;36.72;25.20;;;9.60;95.60;;;;;;4937678;28;20460;-72
2022/03/30 04:35:48;;;;;;;42.75;26.52;;;9.60;95.30;;;;;;4939572;28;20134;-72
2022/03/30 04:38:14;;;;;;;40.00;26.30;;;9.60;95.30;;;;;;4939288;28;20070;-72
2022/03/30 04:40:40;;;;;;;40.97;26.17;;;9.50;95.40;;;;;;4943447;28;20126;-72
2022/03/30 04:43:05;;;;;;;48.63;28.50;;;9.50;95.50;;;;;;4943237;28;20526;-72
2022/03/30 04:45:31;;;;;;;40.75;26.85;;;9.40;95.50;;;;;;4941821;28;20063;-72
2022/03/30 04:47:57;;;;;;;43.60;26.95;;;9.40;95.60;;;;;;4942373;28;20035;-72
2022/03/30 04:50:23;;;;;;;40.25;26.73;;;9.40;95.70;;;;;;4942820;28;20058;-72
2022/03/30 04:52:49;;;;;;;46.67;26.88;;;9.40;95.80;;;;;;4944533;28;20074;-72
2022/03/30 04:55:15;;;;;;;37.55;26.15;;;9.30;96.00;;;;;;4942215;28;20125;-72
2022/03/30 04:57:41;;;;;;;46.58;27.73;;;9.40;95.70;;;;;;4943017;28;20046;-72
2022/03/30 05:00:10;;;;;;;46.75;28.35;;;9.40;95.60;;;;;;4942601;28;20043;-72
2022/03/30 05:02:36;;;;;;;41.72;25.85;;;9.40;95.70;;;;;;4943297;28;20047;-72
2022/03/30 05:05:03;;;;;;;42.45;26.73;;;9.40;96.00;;;;;;4941778;28;20051;-72
2022/03/30 05:07:29;;;;;;;43.83;26.67;;;9.40;96.00;;;;;;4936125;28;20036;-72
2022/03/30 05:09:57;;;;;;;42.40;28.40;;;9.50;96.10;;;;;;4928887;28;20042;-72
2022/03/30 05:12:23;;;;;;;45.55;26.55;;;9.70;95.80;;;;;;4930155;28;20023;-72
2022/03/30 05:14:52;;;;;;;42.55;26.67;;;9.80;95.90;;;;;;4932304;28;20066;-72
2022/03/30 05:17:18;;;;;;;42.72;26.92;;;9.70;96.00;;;;;;4927779;28;20040;-72
2022/03/30 05:19:46;;;;;;;38.60;25.88;;;9.70;96.20;;;;;;4937871;28;20113;-72
2022/03/30 05:22:12;;;;;;;42.40;27.25;;;9.80;96.20;;;;;;4940559;28;20110;-72
2022/03/30 05:24:38;;;;;;;43.95;26.42;;;9.80;96.20;;;;;;4943745;28;20146;-72
2022/03/30 05:27:04;;;;;;;43.58;25.75;;;9.70;96.20;;;;;;4942205;28;20110;-71
2022/03/30 05:29:30;;;;;;;43.80;26.40;;;9.70;96.20;;;;;;4947482;28;20534;-71
2022/03/30 05:31:56;;;;;;;41.20;25.45;;;9.80;96.20;;;;;;4941977;28;20031;-72
2022/03/30 05:34:22;;;;;;;41.25;27.35;;;9.80;96.10;;;;;;4939530;28;20046;-73
2022/03/30 05:36:49;;;;;;;48.45;26.85;;;9.80;95.90;;;;;;4939462;28;20139;-72
2022/03/30 05:39:14;;;;;;;41.85;26.95;;;9.90;95.90;;;;;;4935667;28;20129;-72
2022/03/30 05:41:40;;;;;;;39.97;26.08;;;9.90;95.80;;;;;;4942028;28;20091;-72
2022/03/30 05:44:05;;;;;;;38.22;24.70;;;9.90;95.40;;;;;;4940101;28;20031;-72
2022/03/30 05:46:31;;;;;;;42.63;27.17;;;9.90;95.30;;;;;;4942904;28;20102;-72
2022/03/30 05:48:57;;;;;;;42.40;26.52;;;9.90;95.30;;;;;;4940648;28;20023;-72
2022/03/30 05:51:23;;;;;;;43.45;26.88;;;9.90;95.10;;;;;;4942381;28;20047;-72
2022/03/30 05:53:49;;;;;;;39.67;25.45;;;9.80;95.00;;;;;;4938252;28;20041;-72
2022/03/30 05:56:16;;;;;;;42.53;24.90;;;9.60;95.00;;;;;;4941201;28;20031;-72
2022/03/30 05:58:41;;;;;;;40.55;25.45;;;9.60;95.40;;;;;;4944581;28;20043;-71
2022/03/30 06:01:07;;;;;;;43.50;26.88;;;9.70;95.40;;;;;;4942401;28;20036;-72
2022/03/30 06:03:37;;;;;;;43.33;26.58;;;9.70;95.40;;;;;;4932046;28;20103;-72
2022/03/30 06:06:06;;;;;;;38.92;27.33;;;9.70;95.30;;;;;;4939190;28;20564;-72
2022/03/30 06:08:34;;;;;;;41.20;25.95;;;9.70;95.40;;;;;;4938049;28;20548;-72
2022/03/30 06:11:00;;;;;;;43.70;26.63;;;9.70;95.60;;;;;;4942766;28;20462;-72
2022/03/30 06:13:26;;;;;;;38.65;25.00;;;9.70;95.30;;;;;;4945449;28;20027;-72
2022/03/30 06:15:51;;;;;;;44.15;27.88;;;9.60;95.40;;;;;;4947097;28;20062;-72
2022/03/30 06:18:17;;;;;;;42.45;27.23;;;9.60;95.80;;;;;;4945393;28;20097;-72
2022/03/30 06:20:43;;;;;;;46.72;28.17;;;9.70;95.70;;;;;;4943292;28;20086;-72
2022/03/30 06:23:09;;;;;;;44.47;26.58;;;9.60;95.50;;;;;;4931490;28;20540;-72
2022/03/30 06:25:35;;;;;;;39.17;25.45;;;9.60;95.60;;;;;;4941190;28;20035;-72
2022/03/30 06:28:01;;;;;;;50.17;27.88;;;9.80;95.70;;;;;;4953413;28;20028;-72
2022/03/30 06:30:26;;;;;;;42.75;25.88;;;9.90;95.60;;;;;;4950863;28;20050;-72
2022/03/30 06:32:52;;;;;;;41.78;25.83;;;9.80;95.40;;;;;;4945371;28;20043;-72
2022/03/30 06:35:19;;;;;;;38.22;25.17;;;9.90;95.30;;;;;;4946765;28;20035;-72
2022/03/30 06:37:47;;;;;;;40.85;25.05;;;9.80;95.40;;;;;;4944620;28;20042;-72
2022/03/30 06:40:14;;;;;;;39.30;25.85;;;9.80;95.50;;;;;;4945546;28;20038;-72
2022/03/30 06:42:41;;;;;;;43.70;26.80;;;9.70;95.50;;;;;;4943432;28;20054;-72
2022/03/30 06:45:08;;;;;;;46.08;26.52;;;9.80;95.60;;;;;;4945917;28;20078;-72
2022/03/30 06:47:34;;;;;;;40.72;25.42;;;9.90;95.50;;;;;;4944395;28;20124;-72
2022/03/30 06:50:00;;;;;;;43.72;28.17;;;9.90;95.60;;;;;;4942559;28;20233;-72
2022/03/30 06:52:26;;;;;;;37.05;25.45;;;9.90;95.60;;;;;;4946743;28;20138;-71
2022/03/30 06:54:52;;;;;;;38.17;26.10;;;9.90;95.30;;;;;;4944878;28;20035;-73
2022/03/30 06:57:20;;;;;;;40.95;26.77;;;10.00;95.20;;;;;;4941500;28;20045;-72
2022/03/30 06:59:46;;;;;;;39.78;26.05;;;10.00;95.20;;;;;;4929833;28;20042;-72
2022/03/30 07:02:11;;;;;;;36.53;24.63;;;10.00;95.10;;;;;;4940617;28;20065;-72
2022/03/30 07:04:38;;;;;;;40.92;25.30;;;10.00;94.90;;;;;;4943084;28;20130;-72
2022/03/30 07:12:33;;;;;;;45.65;28.40;;;9.90;95.50;;;;;;4941381;28;20147;-72
2022/03/30 07:15:00;;;;;;;41.67;27.63;;;9.90;96.10;;;;;;4945419;28;20118;-72
2022/03/30 07:17:26;;;;;;;45.45;27.27;;;9.70;96.70;;;;;;4941000;28;20024;-72
2022/03/30 07:19:52;;;;;;;45.08;28.10;;;9.70;96.60;;;;;;4944360;28;20031;-72
2022/03/30 07:22:18;;;;;;;43.97;27.95;;;9.70;96.60;;;;;;4955152;28;20378;-72
2022/03/30 07:24:44;;;;;;;47.05;29.70;;;9.70;97.50;;;;;;4945680;28;20047;-72
2022/03/30 07:27:10;;;;;;;45.67;29.42;;;9.70;98.00;;;;;;4954755;28;20528;-72
2022/03/30 07:29:36;;;;;;;43.40;28.58;;;9.90;98.80;;;;;;4953727;28;20027;-72
2022/03/30 07:32:02;;;;;;;46.55;28.63;;;9.70;98.80;;;;;;4955091;28;20105;-72
2022/03/30 07:34:29;;;;;;;50.15;32.40;;;9.70;99.30;;;;;;4953269;28;20039;-72
2022/03/30 07:36:55;;;;;;;56.75;33.05;;;9.80;99.70;;;;;;4955835;28;20039;-72
2022/03/30 07:39:21;;;;;;;51.60;34.40;;;9.70;99.30;;;;;;4949232;28;20062;-72
2022/03/30 07:41:46;;;;;;;54.75;33.35;;;9.70;99.90;;;;;;4946567;28;20091;-72
2022/03/30 07:44:12;;;;;;;53.65;33.10;;;9.70;99.90;;;;;;4955439;28;20031;-72
2022/03/30 07:46:38;;;;;;;43.03;30.27;;;9.60;99.90;;;;;;4948360;28;20063;-72
2022/03/30 07:49:03;;;;;;;48.55;29.58;;;9.40;99.70;;;;;;4945259;28;20098;-72
2022/03/30 07:51:29;;;;;;;50.30;32.80;;;9.50;99.60;;;;;;4944639;28;20042;-72
2022/03/30 07:53:55;;;;;;;49.65;32.20;;;9.60;99.80;;;;;;4945537;28;20031;-72
2022/03/30 07:56:21;;;;;;;53.40;33.42;;;9.80;99.90;;;;;;4944654;28;20071;-72
2022/03/30 07:58:48;;;;;;;49.35;32.60;;;9.80;99.90;;;;;;4955044;28;20477;-72
2022/03/30 08:01:16;;;;;;;46.30;31.17;;;9.70;99.90;;;;;;4937289;28;20050;-72
2022/03/30 08:03:44;;;;;;;47.03;31.40;;;9.70;99.90;;;;;;4949433;28;20071;-72
2022/03/30 08:06:10;;;;;;;45.60;31.08;;;9.70;99.90;;;;;;4946641;28;20038;-72
2022/03/30 08:08:36;;;;;;;49.65;31.23;;;9.70;99.90;;;;;;4936186;28;20072;-72
2022/03/30 08:11:02;;;;;;;43.70;28.55;;;9.70;99.90;;;;;;4936665;28;20138;-73
2022/03/30 08:13:28;;;;;;;49.67;31.20;;;9.70;99.90;;;;;;4939545;28;20044;-73
2022/03/30 08:15:54;;;;;;;47.83;30.77;;;9.80;99.90;;;;;;4928111;28;20039;-72
2022/03/30 08:18:19;;;;;;;50.70;31.50;;;9.50;99.90;;;;;;4945272;28;20114;-72
2022/03/30 08:23:30;;;;;;;45.60;30.45;;;9.60;99.90;;;;;;4945173;28;20073;-72
2022/03/30 08:25:55;;;;;;;49.90;30.25;;;9.60;99.90;;;;;;4943389;28;20046;-72
2022/03/30 08:28:21;;;;;;;48.40;31.40;;;9.80;99.90;;;;;;4946656;28;20022;-73
2022/03/30 08:30:48;;;;;;;51.47;31.88;;;9.80;99.90;;;;;;4955673;28;20035;-72
2022/03/30 08:33:16;;;;;;;49.60;31.98;;;9.90;99.90;;;;;;4954823;28;20039;-72
2022/03/30 08:35:42;;;;;;;49.60;33.28;;;9.70;99.90;;;;;;4932660;28;20039;-72
2022/03/30 08:38:08;;;;;;;48.83;32.50;;;9.60;99.90;;;;;;4929088;28;20098;-73
2022/03/30 08:40:34;;;;;;;47.15;30.95;;;9.70;99.90;;;;;;4951365;28;20051;-72
2022/03/30 08:43:00;;;;;;;52.45;34.13;;;9.70;99.90;;;;;;4953399;28;20067;-72
2022/03/30 08:45:26;;;;;;;49.78;32.83;;;9.50;99.90;;;;;;4945725;28;20089;-72
2022/03/30 08:47:52;;;;;;;53.10;31.80;;;9.50;99.90;;;;;;4944266;28;20090;-73
2022/03/30 08:50:19;;;;;;;51.97;34.83;;;9.40;99.90;;;;;;4943471;28;20045;-72
2022/03/30 08:52:49;;;;;;;46.78;29.92;;;9.40;99.90;;;;;;4944510;28;20042;-72
2022/03/30 08:55:16;;;;;;;51.85;33.70;;;10.00;99.90;;;;;;4950631;28;20412;-73
2022/03/30 08:57:41;;;;;;;52.95;33.45;;;9.80;99.90;;;;;;4951279;28;20121;-72
2022/03/30 09:00:30;;;;;;;56.05;33.47;;;9.60;99.90;;;;;;4954495;28;20030;-72
2022/03/30 09:03:00;;;;;;;50.78;33.97;;;9.50;99.90;;;;;;4946777;28;20034;-72
2022/03/30 09:05:31;;;;;;;50.63;33.17;;;9.30;99.90;;;;;;4943126;28;20046;-73
2022/03/30 09:08:20;;;;;;;52.03;33.20;;;9.30;99.90;;;;;;4942169;28;20398;-72
2022/03/30 09:10:48;;;;;;;51.10;34.33;;;9.30;99.90;;;;;;4944673;28;20043;-73
2022/03/30 09:13:17;;;;;;;49.97;33.53;;;9.30;99.90;;;;;;4945444;28;20043;-72
2022/03/30 09:15:45;;;;;;;58.60;34.97;;;9.40;99.90;;;;;;4944523;28;20118;-73
2022/03/30 09:18:12;;;;;;;48.85;34.65;;;9.50;99.90;;;;;;4944808;28;20419;-72
2022/03/30 09:20:40;;;;;;;48.65;32.75;;;9.40;99.90;;;;;;4946103;28;20042;-72
2022/03/30 09:23:08;;;;;;;57.17;36.63;;;9.40;99.90;;;;;;4950895;28;20031;-72
2022/03/30 09:25:34;;;;;;;52.58;33.90;;;9.50;99.90;;;;;;4951756;28;20066;-73
2022/03/30 09:28:01;;;;;;;52.42;35.83;;;9.60;99.90;;;;;;4944622;28;20393;-73
2022/03/30 09:30:28;;;;;;;57.17;34.75;;;9.60;99.90;;;;;;4944513;28;20035;-72
2022/03/30 09:32:56;;;;;;;54.67;33.85;;;9.70;99.90;;;;;;4945848;28;20035;-73
2022/03/30 09:35:28;;;;;;;55.33;34.75;;;9.70;99.90;;;;;;4941893;28;20031;-73
2022/03/30 09:38:10;;;;;;;50.50;33.78;;;9.80;99.90;;;;;;4928596;28;20038;-72
2022/03/30 09:40:53;;;;;;;54.67;34.67;;;9.80;99.90;;;;;;4943790;28;20082;-73
2022/03/30 09:43:27;;;;;;;51.22;34.35;;;9.90;99.90;;;;;;4941640;28;20533;-72
2022/03/30 09:46:02;;;;;;;55.45;33.72;;;10.10;99.90;;;;;;4942120;28;20176;-73
2022/03/30 09:48:29;;;;;;;54.88;34.60;;;10.30;99.90;;;;;;4941328;28;20027;-72
2022/03/30 09:50:56;;;;;;;62.17;35.25;;;10.50;99.90;;;;;;4939578;28;20114;-73
2022/03/30 09:53:25;;;;;;;54.33;36.05;;;10.50;99.90;;;;;;4933079;28;20087;-73
2022/03/30 09:56:01;;;;;;;58.85;36.67;;;10.50;99.90;;;;;;4940962;28;20027;-73
2022/03/30 09:58:33;;;;;;;58.15;38.00;;;10.30;99.90;;;;;;4947643;28;20031;-73
2022/03/30 10:01:17;;;;;;;60.60;36.58;;;10.40;99.90;;;;;;4946932;28;20367;-72
2022/03/30 10:03:51;;;;;;;54.20;35.05;;;10.50;99.90;;;;;;4944107;28;20035;-73
2022/03/30 10:06:34;;;;;;;54.13;34.42;;;10.40;99.90;;;;;;4947130;28;20031;-72
2022/03/30 10:09:00;;;;;;;54.90;35.75;;;10.40;99.90;;;;;;4940997;28;20046;-73
2022/03/30 10:11:27;;;;;;;48.08;32.88;;;10.50;99.90;;;;;;4947544;28;20066;-72
2022/03/30 10:13:59;;;;;;;50.47;33.65;;;10.50;99.90;;;;;;4949858;28;20118;-73
2022/03/30 10:16:27;;;;;;;51.00;33.60;;;10.70;99.90;;;;;;4948070;28;20176;-75
2022/03/30 10:18:53;;;;;;;48.13;31.60;;;10.90;99.90;;;;;;4945497;28;20028;-74
2022/03/30 10:21:27;;;;;;;48.65;31.95;;;11.00;99.90;;;;;;4941409;28;20035;-74
2022/03/30 10:24:17;;;;;;;49.22;31.40;;;11.10;99.90;;;;;;4942184;28;20084;-74
2022/03/30 10:27:04;;;;;;;52.42;32.15;;;11.20;99.90;;;;;;4945220;28;20035;-74
2022/03/30 10:29:31;;;;;;;53.30;33.92;;;11.20;99.90;;;;;;4944651;28;20024;-74
2022/03/30 10:32:11;;;;;;;55.40;35.40;;;11.10;99.90;;;;;;4948256;28;20102;-74
2022/03/30 10:35:00;;;;;;;59.03;35.35;;;11.30;99.90;;;;;;4945794;28;20039;-74
2022/03/30 10:37:38;;;;;;;52.80;35.60;;;11.00;99.90;;;;;;4955123;28;20092;-73
2022/03/30 10:40:03;;;;;;;57.58;35.67;;;11.00;99.90;;;;;;4937092;28;20118;-74
2022/03/30 10:42:47;;;;;;;57.40;36.60;;;11.00;99.90;;;;;;4947718;28;20521;-74
2022/03/30 10:45:24;;;;;;;56.58;37.08;;;10.90;99.90;;;;;;4946324;28;20532;-74
2022/03/30 10:48:07;;;;;;;55.70;36.83;;;11.00;99.90;;;;;;4945828;28;20051;-74
2022/03/30 10:50:48;;;;;;;59.53;38.00;;;11.30;99.90;;;;;;4954246;28;20034;-74
2022/03/30 10:53:35;;;;;;;58.55;36.17;;;11.40;99.90;;;;;;4947263;28;20405;-75
2022/03/30 10:56:15;;;;;;;50.95;33.95;;;11.60;99.90;;;;;;4944474;28;20086;-74
2022/03/30 10:58:52;;;;;;;62.80;36.17;;;11.40;99.90;;;;;;4945216;28;20066;-74
2022/03/30 11:01:25;;;;;;;62.58;37.42;;;11.10;99.90;;;;;;4943885;28;20031;-74
2022/03/30 11:04:18;;;;;;;55.22;37.15;;;11.40;99.90;;;;;;4945463;28;20027;-74
2022/03/30 11:06:46;;;;;;;49.88;35.67;;;11.40;99.90;;;;;;4945124;28;20478;-73
2022/03/30 11:09:23;;;;;;;54.72;35.75;;;11.70;99.90;;;;;;4947957;28;20531;-74
2022/03/30 11:12:18;;;;;;;53.67;35.35;;;11.80;99.90;;;;;;4934155;28;20121;-74
2022/03/30 11:15:01;;;;;;;55.40;36.47;;;12.00;99.90;;;;;;4937194;28;20039;-74
2022/03/30 11:17:32;;;;;;;49.80;33.88;;;12.00;99.90;;;;;;4942932;28;20443;-74
2022/03/30 11:19:58;;;;;;;51.53;33.05;;;11.90;99.90;;;;;;4946076;28;20101;-74
2022/03/30 11:22:28;;;;;;;57.38;36.83;;;12.00;99.90;;;;;;4947514;28;20481;-74
2022/03/30 11:25:24;;;;;;;50.15;35.17;;;12.30;99.90;;;;;;4944351;28;20042;-74
2022/03/30 11:27:59;;;;;;;51.47;33.92;;;12.20;99.90;;;;;;4946306;28;20038;-74
2022/03/30 11:30:28;;;;;;;51.80;34.58;;;12.20;99.90;;;;;;4946744;28;20035;-74
2022/03/30 11:33:24;;;;;;;50.38;34.63;;;12.00;99.90;;;;;;4946599;28;20050;-74
2022/03/30 11:35:52;;;;;;;50.28;34.17;;;12.20;99.90;;;;;;4933023;28;20470;-74
2022/03/30 11:38:21;;;;;;;51.47;35.17;;;12.30;99.90;;;;;;4946525;28;20087;-74
2022/03/30 11:40:49;;;;;;;52.90;34.92;;;12.30;99.90;;;;;;4946361;28;20565;-74
2022/03/30 11:43:17;;;;;;;49.47;33.28;;;12.10;99.90;;;;;;4938885;28;20420;-73
2022/03/30 11:45:43;;;;;;;52.22;35.15;;;12.30;99.90;;;;;;4930608;28;20039;-74
2022/03/30 11:48:11;;;;;;;55.72;35.15;;;12.30;99.90;;;;;;4933359;28;20427;-74
2022/03/30 11:50:39;;;;;;;60.22;34.67;;;12.40;99.90;;;;;;4930576;28;20027;-74
2022/03/30 11:53:07;;;;;;;50.97;34.03;;;12.40;99.90;;;;;;4945752;28;20513;-74
2022/03/30 11:55:51;;;;;;;48.83;33.53;;;12.50;99.90;;;;;;4944598;28;20030;-74
2022/03/30 11:58:49;;;;;;;50.13;33.17;;;12.80;99.90;;;;;;4946889;28;20031;-74
2022/03/30 12:01:16;;;;;;;51.55;33.28;;;12.80;99.90;;;;;;4944596;28;20035;-74
2022/03/30 12:03:43;;;;;;;52.05;34.72;;;13.00;99.90;;;;;;4942819;28;20046;-74
2022/03/30 12:06:10;;;;;;;53.45;33.85;;;13.00;99.90;;;;;;4944807;28;20043;-74
2022/03/30 12:08:45;;;;;;;50.15;36.55;;;12.90;99.90;;;;;;4944583;28;20135;-74
2022/03/30 12:11:12;;;;;;;52.03;33.90;;;12.80;99.90;;;;;;4944655;28;20027;-74
2022/03/30 12:13:38;;;;;;;46.83;33.45;;;12.90;99.70;;;;;;4945117;28;20608;-72
2022/03/30 12:16:05;;;;;;;48.53;31.50;;;13.00;99.60;;;;;;4945820;28;20035;-72
2022/03/30 12:18:31;;;;;;;34.03;23.52;;;12.90;99.30;;;;;;4950132;28;20393;-77
2022/03/30 12:21:01;;;;;;;51.95;35.42;;;13.20;99.00;;;;;;4951897;28;20150;-73
2022/03/30 12:23:27;;;;;;;44.83;32.35;;;13.20;99.30;;;;;;4952875;28;20559;-74
2022/03/30 12:25:53;;;;;;;46.90;32.83;;;13.10;98.70;;;;;;4944831;28;20043;-74
2022/03/30 12:28:33;;;;;;;51.65;34.20;;;12.90;98.40;;;;;;4938340;28;20039;-74
2022/03/30 12:31:00;;;;;;;70.05;34.30;;;12.90;99.60;;;;;;4932131;28;20504;-74
2022/03/30 12:33:26;;;;;;;46.80;31.80;;;13.10;99.20;;;;;;4938097;28;20035;-74
2022/03/30 12:35:53;;;;;;;52.55;34.75;;;13.00;98.70;;;;;;4944023;28;20070;-74
2022/03/30 12:38:20;;;;;;;48.67;31.95;;;12.90;98.80;;;;;;4943109;28;20465;-74
2022/03/30 12:40:52;;;;;;;51.22;34.67;;;13.00;99.00;;;;;;4943574;28;20086;-74
2022/03/30 12:43:24;;;;;;;46.88;33.17;;;13.00;98.90;;;;;;4943906;28;20131;-74
2022/03/30 12:45:54;;;;;;;49.95;30.77;;;13.00;99.10;;;;;;4941612;28;20519;-75
2022/03/30 12:48:29;;;;;;;50.75;34.20;;;12.90;98.80;;;;;;4943027;28;20036;-74